Time;durP1;ratioP1;P1;durP2;ratioP2;P2;SDS_P1;SDS_P2;PMS_P1;PMS_P2;Temp;Humidity;BMP_temperature;BMP_pressure;BME280_temperature;BME280_humidity;BME280_pressure;Samples;Min_cycle;Max_cycle;Signal;HPM_P1;HPM_P2
2022/10/14 00:00:42;;;;;;;10.60;8.85;;;15.80;99.90;;;15.05;100.00;101309.09;5072405;23;20010;-77
2022/10/14 00:02:42;;;;;;;13.10;8.98;;;15.80;99.90;;;14.98;100.00;101307.28;5098914;23;20048;-77
2022/10/14 00:04:43;;;;;;;13.63;9.43;;;15.70;99.90;;;14.95;100.00;101306.63;5073833;23;20010;-77
2022/10/14 00:06:44;;;;;;;13.18;9.75;;;15.70;99.90;;;14.96;100.00;101313.59;5073604;23;20006;-77
2022/10/14 00:08:48;;;;;;;13.50;8.45;;;15.70;99.90;;;14.87;100.00;101309.28;5099728;23;20493;-77
2022/10/14 00:10:50;;;;;;;17.88;8.90;;;15.60;99.90;;;14.89;100.00;101311.78;5074388;23;20516;-77
2022/10/14 00:12:51;;;;;;;15.43;9.90;;;15.70;99.90;;;14.88;100.00;101310.97;5049502;23;20006;-77
2022/10/14 00:14:52;;;;;;;14.90;9.38;;;15.70;99.90;;;14.90;100.00;101316.13;5073884;23;20069;-77
2022/10/14 00:16:54;;;;;;;16.25;8.35;;;15.60;99.90;;;14.89;100.00;101311.78;5099829;23;20012;-77
2022/10/14 00:18:56;;;;;;;11.73;9.10;;;15.60;99.90;;;14.91;100.00;101313.28;5049475;23;20038;-77
2022/10/14 00:21:00;;;;;;;12.23;8.20;;;15.70;99.90;;;14.94;100.00;101325.38;5073403;23;20017;-77
2022/10/14 00:23:01;;;;;;;13.43;9.63;;;15.70;99.90;;;14.95;100.00;101322.56;5049993;23;20344;-78
2022/10/14 00:25:03;;;;;;;12.18;8.63;;;15.70;99.90;;;14.95;100.00;101316.44;5098130;23;20020;-78
2022/10/14 00:27:04;;;;;;;14.90;8.38;;;15.70;99.90;;;14.92;100.00;101316.78;5073581;23;20020;-77
2022/10/14 00:29:13;;;;;;;12.18;7.38;;;15.70;99.90;;;14.91;100.00;101325.72;5099557;23;20006;-77
2022/10/14 00:31:15;;;;;;;8.55;6.60;;;15.70;99.90;;;14.89;100.00;101306.47;5073950;23;20006;-77
2022/10/14 00:33:16;;;;;;;10.02;7.28;;;15.70;99.90;;;14.86;100.00;101293.53;5073927;23;20014;-77
2022/10/14 00:35:17;;;;;;;8.50;6.57;;;15.70;99.90;;;14.94;100.00;101307.63;5073485;23;20062;-77
2022/10/14 00:37:18;;;;;;;8.55;6.72;;;15.60;99.90;;;14.88;100.00;101300.34;5073636;23;20070;-77
2022/10/14 00:39:19;;;;;;;8.93;6.97;;;15.60;99.90;;;14.83;100.00;101284.09;5097567;23;20029;-77
2022/10/14 00:41:29;;;;;;;10.13;5.88;;;15.60;99.90;;;14.87;100.00;101292.56;5099526;23;20378;-77
2022/10/14 00:44:05;;;;;;;8.48;6.70;;;15.60;99.90;;;14.86;100.00;101291.72;5073607;23;20323;-77
2022/10/14 00:46:10;;;;;;;9.82;6.63;;;15.60;99.90;;;14.76;100.00;101274.31;5099413;23;20013;-77
2022/10/14 00:48:12;;;;;;;9.07;6.57;;;15.60;99.90;;;14.82;100.00;101289.56;5073627;23;20542;-77
2022/10/14 00:50:14;;;;;;;9.73;7.10;;;15.60;99.90;;;14.88;100.00;101294.19;5073392;23;20510;-77
2022/10/14 00:52:22;;;;;;;9.63;6.70;;;15.60;99.90;;;14.83;100.00;101285.91;5099423;23;20005;-77
2022/10/14 00:54:32;;;;;;;7.63;6.45;;;15.60;99.90;;;14.82;100.00;101279.75;5073354;23;20006;-77
2022/10/14 00:56:35;;;;;;;8.60;7.07;;;15.60;99.90;;;14.88;100.00;101288.88;5074374;23;20033;-77
2022/10/14 00:58:37;;;;;;;11.07;7.13;;;15.60;99.90;;;14.85;100.00;101268.81;5073632;23;20069;-77
2022/10/14 01:00:38;;;;;;;7.75;6.65;;;15.60;99.90;;;14.81;100.00;101266.69;5073501;23;20010;-77
2022/10/14 01:02:40;;;;;;;10.60;7.00;;;15.60;99.90;;;14.79;100.00;101263.34;5099239;23;20006;-78
2022/10/14 01:04:43;;;;;;;8.18;6.00;;;15.60;99.90;;;14.78;100.00;101280.28;5073391;23;20013;-77
2022/10/14 01:07:04;;;;;;;9.50;6.87;;;15.50;99.90;;;14.71;100.00;101268.69;5099103;23;20434;-77
2022/10/14 01:09:23;;;;;;;8.35;5.82;;;15.50;99.90;;;14.70;100.00;101269.66;5076335;23;20009;-77
2022/10/14 01:11:54;;;;;;;7.97;6.53;;;15.50;99.90;;;14.62;100.00;101273.19;5073027;23;20038;-77
2022/10/14 01:14:32;;;;;;;11.40;6.80;;;15.40;99.90;;;14.57;100.00;101274.69;5099099;23;20523;-77
2022/10/14 01:16:57;;;;;;;7.40;5.97;;;15.30;99.90;;;14.53;100.00;101278.66;5099426;23;20017;-77
2022/10/14 01:19:46;;;;;;;8.05;5.75;;;15.30;99.90;;;14.48;100.00;101281.84;5073887;23;20065;-77
2022/10/14 01:22:35;;;;;;;8.27;6.30;;;15.30;99.90;;;14.44;100.00;101269.91;5099344;23;20529;-77
2022/10/14 01:24:43;;;;;;;8.13;6.63;;;15.20;99.90;;;14.46;100.00;101267.88;5075502;23;20080;-77
2022/10/14 01:27:26;;;;;;;8.05;5.85;;;15.20;99.90;;;14.45;100.00;101281.34;5099226;23;20006;-77
2022/10/14 01:30:05;;;;;;;8.32;5.60;;;15.20;99.90;;;14.43;100.00;101278.00;5099081;23;20058;-77
2022/10/14 01:32:15;;;;;;;7.25;5.28;;;15.20;99.90;;;14.40;100.00;101265.91;5076686;23;20029;-77
2022/10/14 01:34:27;;;;;;;7.15;5.03;;;15.20;99.90;;;14.36;100.00;101262.78;5049600;23;20010;-77
2022/10/14 01:36:45;;;;;;;7.35;5.32;;;15.20;99.90;;;14.38;100.00;101268.75;5073683;23;20008;-77
2022/10/14 01:39:08;;;;;;;9.05;5.45;;;15.10;99.90;;;14.39;100.00;101282.84;5074866;23;20399;-77
2022/10/14 01:41:37;;;;;;;7.47;5.25;;;15.10;99.90;;;14.35;100.00;101268.25;5098786;23;20449;-77
2022/10/14 01:43:40;;;;;;;7.07;5.20;;;15.10;99.90;;;14.35;100.00;101271.72;5076241;23;20034;-77
2022/10/14 01:45:44;;;;;;;7.18;5.55;;;15.10;99.90;;;14.37;100.00;101274.22;5073256;23;20021;-77
2022/10/14 01:47:49;;;;;;;8.77;5.82;;;15.10;99.90;;;14.35;100.00;101268.25;5048956;23;20081;-77
2022/10/14 01:50:02;;;;;;;8.07;5.60;;;15.10;99.90;;;14.32;100.00;101260.59;5072981;23;20352;-77
2022/10/14 01:52:26;;;;;;;6.43;4.70;;;15.10;99.90;;;14.35;100.00;101279.69;5074157;23;20030;-77
2022/10/14 01:54:38;;;;;;;8.85;5.50;;;15.10;99.90;;;14.34;100.00;101279.84;5073853;23;20069;-77
2022/10/14 01:56:41;;;;;;;10.43;5.30;;;15.10;99.90;;;14.29;100.00;101279.50;5073696;23;20010;-77
2022/10/14 01:58:43;;;;;;;11.32;5.70;;;15.10;99.90;;;14.26;100.00;101280.66;5073294;23;20010;-77
2022/10/14 02:00:46;;;;;;;7.80;5.72;;;15.00;99.90;;;14.26;100.00;101285.13;5073125;23;20010;-77
2022/10/14 02:02:47;;;;;;;7.10;5.28;;;15.00;99.90;;;14.25;100.00;101279.00;5048643;23;20037;-77
2022/10/14 02:04:48;;;;;;;7.07;5.63;;;15.00;99.90;;;14.25;100.00;101271.03;5097106;23;20011;-77
2022/10/14 02:07:08;;;;;;;7.25;5.88;;;15.00;99.90;;;14.28;100.00;101276.00;5072940;23;20041;-78
2022/10/14 02:10:19;;;;;;;9.93;6.05;;;15.00;99.90;;;14.25;100.00;101275.50;5073434;23;20002;-77
2022/10/14 02:13:04;;;;;;;6.60;5.28;;;15.00;99.90;;;14.23;100.00;101272.19;5085600;23;20512;-77
2022/10/14 02:15:32;;;;;;;6.82;5.38;;;15.00;99.90;;;14.24;100.00;101264.09;5098886;23;20374;-77
2022/10/14 02:17:53;;;;;;;6.53;4.70;;;15.00;99.90;;;14.22;100.00;101255.44;5098738;23;20033;-77
2022/10/14 02:20:12;;;;;;;7.65;5.53;;;15.00;99.90;;;14.23;100.00;101262.41;5074912;23;20013;-77
2022/10/14 02:22:27;;;;;;;6.80;5.18;;;15.00;99.90;;;14.25;100.00;101255.13;5073979;23;20002;-77
2022/10/14 02:24:39;;;;;;;8.02;5.10;;;15.00;99.90;;;14.22;100.00;101244.84;5072486;23;20006;-77
2022/10/14 02:26:41;;;;;;;8.88;6.05;;;15.00;99.90;;;14.20;100.00;101246.84;5048385;23;20007;-77
2022/10/14 02:28:44;;;;;;;10.60;5.38;;;15.00;99.90;;;14.19;100.00;101244.34;5097246;23;20009;-77
2022/10/14 02:30:52;;;;;;;9.52;5.78;;;15.00;99.90;;;14.18;100.00;101255.97;5048310;23;20009;-78
2022/10/14 02:32:55;;;;;;;8.57;5.60;;;14.90;99.90;;;14.13;100.00;101248.47;5048641;23;20546;-77
2022/10/14 02:34:58;;;;;;;12.93;6.25;;;14.90;99.90;;;14.15;100.00;101258.94;5096951;23;20001;-77
2022/10/14 02:37:00;;;;;;;8.70;6.18;;;14.90;99.90;;;14.14;100.00;101258.13;5072932;23;20005;-77
2022/10/14 02:39:02;;;;;;;7.88;5.65;;;14.90;99.90;;;14.11;100.00;101241.69;5072417;23;20045;-77
2022/10/14 02:41:09;;;;;;;8.93;6.03;;;14.90;99.90;;;14.12;100.00;101232.75;5047969;23;20037;-77
2022/10/14 02:43:11;;;;;;;8.25;5.85;;;14.90;99.90;;;14.14;100.00;101244.84;5073270;23;20017;-77
2022/10/14 02:45:13;;;;;;;8.73;6.15;;;14.90;99.90;;;14.11;100.00;101239.88;5072698;23;20005;-77
2022/10/14 02:47:14;;;;;;;9.93;6.32;;;14.90;99.90;;;14.12;100.00;101244.19;5072837;23;20077;-78
2022/10/14 02:49:16;;;;;;;8.27;5.55;;;14.90;99.90;;;14.07;100.00;101238.53;5098478;23;20422;-77
2022/10/14 02:51:17;;;;;;;8.45;6.10;;;14.80;99.90;;;14.08;100.00;101237.56;5072355;23;20054;-77
2022/10/14 02:53:18;;;;;;;8.05;5.80;;;14.90;99.90;;;14.10;100.00;101245.34;5098496;23;20430;-77
2022/10/14 02:55:19;;;;;;;8.52;6.25;;;14.90;99.90;;;14.08;100.00;101229.59;5098711;23;20005;-77
2022/10/14 02:57:20;;;;;;;9.15;5.85;;;14.80;99.90;;;14.05;100.00;101215.81;5072688;23;20002;-78
2022/10/14 02:59:20;;;;;;;8.65;5.70;;;14.80;99.90;;;14.09;100.00;101228.63;5098470;23;20001;-77
2022/10/14 03:01:21;;;;;;;8.52;5.40;;;14.80;99.90;;;14.09;100.00;101218.00;5098568;23;20081;-77
2022/10/14 03:03:22;;;;;;;8.70;5.47;;;14.80;99.90;;;14.08;100.00;101220.81;5098558;23;20360;-78
2022/10/14 03:05:23;;;;;;;8.75;5.60;;;14.80;99.90;;;14.07;100.00;101213.81;5072318;23;20002;-78
2022/10/14 03:07:25;;;;;;;8.32;5.82;;;14.80;99.90;;;14.09;100.00;101219.81;5098390;23;20002;-77
2022/10/14 03:09:25;;;;;;;8.95;5.45;;;14.80;99.90;;;14.08;100.00;101204.88;5072561;23;20037;-77
2022/10/14 03:11:26;;;;;;;7.88;5.10;;;14.80;99.90;;;14.04;100.00;101196.44;5072227;23;20009;-77
2022/10/14 03:13:27;;;;;;;5.45;4.55;;;14.80;99.90;;;14.04;100.00;101201.72;5098531;23;20014;-77
2022/10/14 03:15:28;;;;;;;11.45;4.90;;;14.80;99.90;;;14.04;100.00;101199.09;5098377;23;20073;-77
2022/10/14 03:17:29;;;;;;;6.47;4.15;;;14.80;99.90;;;14.04;100.00;101193.78;5098439;23;20005;-77
2022/10/14 03:19:30;;;;;;;12.23;4.47;;;14.80;99.90;;;14.01;100.00;101199.41;5098539;23;20009;-78
2022/10/14 03:21:31;;;;;;;7.93;4.30;;;14.80;99.90;;;13.98;100.00;101178.53;5098153;23;20012;-77
2022/10/14 03:23:32;;;;;;;6.88;4.15;;;14.70;99.90;;;14.00;100.00;101181.03;5072633;23;20009;-78
2022/10/14 03:25:33;;;;;;;6.53;4.75;;;14.70;99.90;;;13.98;100.00;101173.22;5098293;23;20013;-78
2022/10/14 03:27:34;;;;;;;8.07;4.60;;;14.70;99.90;;;13.99;100.00;101184.66;5047969;23;20003;-78
2022/10/14 03:29:35;;;;;;;5.50;4.18;;;14.70;99.90;;;13.99;100.00;101182.84;5098530;23;20002;-78
2022/10/14 03:31:36;;;;;;;7.63;4.00;;;14.70;99.90;;;13.98;100.00;101183.03;5098295;23;20008;-78
2022/10/14 03:33:37;;;;;;;8.82;5.25;;;14.70;99.90;;;13.95;100.00;101176.22;5072176;23;20006;-78
2022/10/14 03:35:38;;;;;;;5.47;3.88;;;14.70;99.90;;;13.96;100.00;101172.56;5097977;23;20006;-78
2022/10/14 03:37:38;;;;;;;8.57;4.40;;;14.70;99.90;;;13.94;100.00;101179.88;5099449;23;20005;-77
2022/10/14 03:39:39;;;;;;;8.82;4.05;;;14.70;99.90;;;13.92;100.00;101176.53;5099944;23;20346;-78
2022/10/14 03:41:40;;;;;;;4.22;3.30;;;14.70;99.90;;;13.89;100.00;101174.22;5099916;23;20012;-78
2022/10/14 03:43:41;;;;;;;5.55;3.67;;;14.70;99.90;;;13.91;100.00;101182.03;5074067;23;20013;-77
2022/10/14 03:45:44;;;;;;;10.52;3.83;;;14.60;99.90;;;13.89;100.00;101171.56;5099830;23;20036;-78
2022/10/14 03:47:45;;;;;;;7.57;3.88;;;14.60;99.90;;;13.84;100.00;101171.25;5074050;23;20002;-77
2022/10/14 03:49:46;;;;;;;5.85;3.50;;;14.60;99.90;;;13.83;100.00;101161.63;5073686;23;20017;-78
2022/10/14 03:51:47;;;;;;;7.13;3.13;;;14.60;99.90;;;13.84;100.00;101166.78;5099870;23;20080;-77
2022/10/14 03:53:48;;;;;;;5.03;2.75;;;14.60;99.90;;;13.84;100.00;101160.66;5099861;23;20422;-77
2022/10/14 03:55:48;;;;;;;4.30;2.70;;;14.60;99.90;;;13.81;100.00;101163.63;5099864;23;20009;-77
2022/10/14 03:57:50;;;;;;;4.30;2.53;;;14.60;99.90;;;13.76;100.00;101158.84;5073926;23;20006;-77
2022/10/14 03:59:50;;;;;;;6.70;3.50;;;14.60;99.90;;;13.74;100.00;101144.06;5073965;23;20084;-77
2022/10/14 04:01:51;;;;;;;3.55;2.53;;;14.50;99.90;;;13.77;100.00;101154.34;5099770;23;20009;-76
2022/10/14 04:03:52;;;;;;;7.18;3.78;;;14.50;99.90;;;13.72;100.00;101154.03;5099778;23;20020;-77
2022/10/14 04:05:53;;;;;;;6.90;3.13;;;14.50;99.90;;;13.68;100.00;101156.16;5099339;23;20037;-77
2022/10/14 04:07:54;;;;;;;5.93;3.40;;;14.40;99.90;;;13.69;100.00;101149.06;5073904;23;20009;-77
2022/10/14 04:09:55;;;;;;;6.00;3.45;;;14.40;99.90;;;13.67;100.00;101157.19;5073853;23;20005;-77
2022/10/14 04:11:56;;;;;;;4.72;2.85;;;14.40;99.90;;;13.70;100.00;101150.72;5099907;23;20441;-77
2022/10/14 04:13:58;;;;;;;5.63;3.58;;;14.40;99.90;;;13.68;100.00;101150.03;5099637;23;20068;-77
2022/10/14 04:16:08;;;;;;;6.70;3.22;;;14.40;99.90;;;13.67;100.00;101145.75;5073813;23;20065;-77
2022/10/14 04:18:09;;;;;;;4.97;3.03;;;14.50;99.90;;;13.69;100.00;101149.06;5074206;23;20415;-77
2022/10/14 04:20:10;;;;;;;7.60;3.28;;;14.40;99.90;;;13.68;100.00;101136.78;5073604;23;20025;-77
2022/10/14 04:22:11;;;;;;;9.13;3.20;;;14.40;99.90;;;13.70;100.00;101138.28;5073793;23;20069;-77
2022/10/14 04:24:12;;;;;;;8.43;3.55;;;14.40;99.90;;;13.69;100.00;101131.31;5099726;23;20013;-77
2022/10/14 04:26:13;;;;;;;5.80;3.35;;;14.40;99.90;;;13.69;100.00;101120.72;5099503;23;20009;-77
2022/10/14 04:28:14;;;;;;;5.00;2.92;;;14.40;99.90;;;13.72;100.00;101124.84;5073832;23;20002;-77
2022/10/14 04:30:15;;;;;;;5.57;2.60;;;14.40;99.90;;;13.70;100.00;101116.25;5099554;23;20453;-77
2022/10/14 04:32:16;;;;;;;3.88;2.75;;;14.50;99.90;;;13.72;100.00;101108.94;5073665;23;20380;-77
2022/10/14 04:34:17;;;;;;;3.90;2.80;;;14.50;99.90;;;13.73;100.00;101105.31;5073731;23;20013;-77
2022/10/14 04:36:17;;;;;;;5.65;3.25;;;14.50;99.90;;;13.74;100.00;101114.91;5099304;23;20381;-77
2022/10/14 04:38:18;;;;;;;3.42;2.40;;;14.50;99.90;;;13.75;100.00;101109.44;5099290;23;20022;-77
2022/10/14 04:40:24;;;;;;;4.30;2.47;;;14.50;99.90;;;13.75;100.00;101098.84;5099702;23;20005;-77
2022/10/14 04:42:25;;;;;;;5.93;3.10;;;14.50;99.90;;;13.76;100.00;101100.50;5074745;23;20005;-77
2022/10/14 04:44:26;;;;;;;4.40;2.70;;;14.50;99.90;;;13.75;100.00;101101.50;5073475;23;20006;-77
2022/10/14 04:46:27;;;;;;;3.80;3.35;;;14.50;99.90;;;13.76;100.00;101099.69;5073325;23;20049;-77
2022/10/14 04:48:27;;;;;;;4.47;2.55;;;14.50;99.90;;;13.75;100.00;101098.84;5099104;23;20441;-77
2022/10/14 04:50:28;;;;;;;4.40;2.70;;;14.50;99.90;;;13.72;100.00;101091.22;5099170;23;20027;-77
2022/10/14 04:52:29;;;;;;;3.58;2.80;;;14.50;99.90;;;13.73;100.00;101095.53;5073534;23;20033;-77
2022/10/14 04:54:30;;;;;;;7.28;2.72;;;14.50;99.90;;;13.70;100.00;101095.88;5073602;23;20006;-77
2022/10/14 04:56:31;;;;;;;5.80;3.38;;;14.50;99.90;;;13.73;100.00;101089.41;5097903;23;20017;-77
2022/10/14 04:58:32;;;;;;;4.85;3.25;;;14.50;99.90;;;13.73;100.00;101090.25;5073732;23;20041;-77
2022/10/14 05:00:33;;;;;;;6.88;3.17;;;14.50;99.90;;;13.73;100.00;101084.09;5073557;23;20021;-77
2022/10/14 05:02:34;;;;;;;5.88;3.25;;;14.50;99.90;;;13.74;100.00;101086.56;5073455;23;20466;-77
2022/10/14 05:04:34;;;;;;;3.60;2.65;;;14.50;99.90;;;13.72;100.00;101077.13;5073108;23;20316;-77
2022/10/14 05:06:36;;;;;;;4.72;2.53;;;14.50;99.90;;;13.79;100.00;101083.44;5099928;23;20010;-77
2022/10/14 05:08:37;;;;;;;3.17;2.53;;;14.50;99.90;;;13.79;100.00;101070.19;5049196;23;20066;-77
2022/10/14 05:10:38;;;;;;;3.05;2.35;;;14.50;99.90;;;13.81;100.00;101065.53;5099088;23;20002;-77
2022/10/14 05:12:39;;;;;;;3.05;2.28;;;14.50;99.90;;;13.82;100.00;101061.88;5073471;23;20037;-77
2022/10/14 05:14:40;;;;;;;2.80;2.47;;;14.60;99.90;;;13.78;100.00;101050.78;5097967;23;20159;-77
2022/10/14 05:16:41;;;;;;;3.47;1.95;;;14.60;99.90;;;13.80;100.00;101051.44;5073380;23;20065;-77
2022/10/14 05:18:42;;;;;;;5.38;2.50;;;14.60;99.90;;;13.84;100.00;101054.56;5073323;23;20331;-77
2022/10/14 05:20:43;;;;;;;3.55;2.30;;;14.60;99.90;;;13.82;100.00;101045.97;5073044;23;20021;-77
2022/10/14 05:22:46;;;;;;;3.00;2.13;;;14.60;99.90;;;13.87;100.00;101046.28;5097708;23;20018;-77
2022/10/14 05:24:47;;;;;;;3.90;2.67;;;14.60;99.90;;;13.84;100.00;101031.53;5099112;23;20005;-77
2022/10/14 05:26:48;;;;;;;3.03;2.58;;;14.60;99.90;;;13.89;100.00;101040.81;5073206;23;20086;-77
2022/10/14 05:28:51;;;;;;;5.28;2.75;;;14.60;99.90;;;13.86;100.00;101023.41;5072923;23;20002;-77
2022/10/14 05:30:52;;;;;;;3.30;2.88;;;14.60;99.90;;;13.89;100.00;101024.91;5072917;23;20052;-76
2022/10/14 05:32:53;;;;;;;3.45;2.22;;;14.70;99.90;;;13.90;100.00;101018.59;5097666;23;20366;-77
2022/10/14 05:34:54;;;;;;;3.90;2.90;;;14.70;99.90;;;13.93;100.00;101027.03;5098730;23;20017;-77
2022/10/14 05:36:55;;;;;;;3.42;2.75;;;14.70;99.90;;;13.94;100.00;101023.41;5073108;23;20017;-77
2022/10/14 05:38:57;;;;;;;3.17;2.13;;;14.70;99.90;;;13.95;100.00;101008.31;5072806;23;20021;-77
2022/10/14 05:40:58;;;;;;;6.32;2.28;;;14.70;99.90;;;13.97;100.00;101014.28;5097684;23;20013;-77
2022/10/14 05:42:59;;;;;;;2.10;1.67;;;14.70;99.90;;;14.03;100.00;101010.94;5072975;23;20013;-77
2022/10/14 05:45:00;;;;;;;2.05;1.60;;;14.80;99.90;;;14.06;100.00;101010.59;5099025;23;20009;-77
2022/10/14 05:47:01;;;;;;;2.17;1.48;;;14.80;99.90;;;14.07;100.00;101007.75;5048544;23;20010;-77
2022/10/14 05:49:04;;;;;;;1.88;1.20;;;14.80;99.90;;;14.13;100.00;101001.75;5072968;23;20002;-77
2022/10/14 05:51:05;;;;;;;2.65;1.27;;;14.80;99.90;;;14.09;100.00;100989.03;5098591;23;20089;-77
2022/10/14 05:53:06;;;;;;;2.17;1.23;;;14.80;99.90;;;14.15;100.00;100994.47;5048657;23;20490;-77
2022/10/14 05:55:08;;;;;;;3.22;1.30;;;14.90;99.90;;;14.20;100.00;100986.81;5073017;23;20041;-77
2022/10/14 05:57:09;;;;;;;2.47;1.17;;;14.90;99.90;;;14.21;100.00;100985.00;5098909;23;20005;-77
2022/10/14 05:59:10;;;;;;;1.50;0.98;;;15.00;99.90;;;14.23;100.00;100985.63;5098757;23;20016;-77
2022/10/14 06:01:11;;;;;;;1.75;1.30;;;15.00;99.90;;;14.26;100.00;100979.97;5072638;23;20006;-77
2022/10/14 06:03:12;;;;;;;1.70;1.20;;;15.00;99.90;;;14.31;100.00;100983.75;5098863;23;20001;-77
2022/10/14 06:05:13;;;;;;;2.58;1.05;;;15.00;99.90;;;14.27;100.00;100976.34;5098519;23;20009;-77
2022/10/14 06:07:14;;;;;;;2.92;1.70;;;15.00;99.90;;;14.31;100.00;100978.44;5072882;23;20006;-77
2022/10/14 06:09:15;;;;;;;1.92;1.40;;;15.00;99.90;;;14.33;100.00;100973.00;5098746;23;20033;-77
2022/10/14 06:11:16;;;;;;;4.30;2.13;;;15.00;99.90;;;14.34;100.00;100966.69;5073053;23;20053;-77
2022/10/14 06:13:18;;;;;;;2.80;1.90;;;15.10;99.90;;;14.32;100.00;100969.53;5072910;23;20006;-77
2022/10/14 06:15:19;;;;;;;1.73;1.30;;;15.10;99.90;;;14.36;100.00;100973.50;5072876;23;20009;-77
2022/10/14 06:17:20;;;;;;;3.15;1.85;;;15.10;99.90;;;14.36;100.00;100970.84;5098695;23;20330;-77
2022/10/14 06:19:21;;;;;;;1.90;1.40;;;15.10;99.90;;;14.39;100.00;100959.84;5098911;23;20006;-77
2022/10/14 06:21:22;;;;;;;1.67;1.20;;;15.10;99.90;;;14.38;100.00;100950.25;5098468;23;20010;-77
2022/10/14 06:23:23;;;;;;;2.80;1.73;;;15.10;99.90;;;14.43;100.00;100932.97;5098627;23;20385;-77
2022/10/14 06:25:24;;;;;;;2.90;1.58;;;15.10;99.90;;;14.38;100.00;100936.97;5072618;23;20062;-77
2022/10/14 06:27:26;;;;;;;2.13;1.40;;;15.10;99.90;;;14.48;100.00;100949.19;5072736;23;20006;-77
2022/10/14 06:29:30;;;;;;;1.45;0.85;;;15.20;99.90;;;14.46;100.00;100945.88;5072831;23;20009;-76
2022/10/14 06:31:40;;;;;;;1.38;0.77;;;15.20;99.90;;;14.50;100.00;100937.41;4233256;27;20391;-77
2022/10/14 06:33:42;;;;;;;1.58;0.57;;;15.20;99.90;;;14.55;100.00;100950.13;4215230;28;20036;-77
2022/10/14 06:35:43;;;;;;;1.48;0.40;;;15.20;99.90;;;14.59;100.00;100941.66;4205251;28;20028;-77
2022/10/14 06:37:46;;;;;;;0.73;0.40;;;15.30;99.90;;;14.62;100.00;100943.94;4216338;28;20035;-77
2022/10/14 06:39:46;;;;;;;0.70;0.40;;;15.30;99.90;;;14.65;100.00;100940.94;4216158;28;20084;-77
2022/10/14 06:41:47;;;;;;;1.63;0.50;;;15.30;99.90;;;14.61;100.00;100933.50;4216500;28;20082;-77
2022/10/14 06:43:48;;;;;;;0.75;0.40;;;15.30;99.90;;;14.66;100.00;100937.28;4215061;28;20036;-77
2022/10/14 06:45:49;;;;;;;2.22;0.40;;;15.40;99.90;;;14.73;100.00;100932.06;4198186;28;20040;-77
2022/10/14 06:47:50;;;;;;;0.40;0.20;;;15.40;99.90;;;14.77;100.00;100930.72;4211984;28;20017;-77
2022/10/14 06:49:51;;;;;;;1.30;0.30;;;15.40;99.90;;;14.82;100.00;100931.84;4215006;28;20032;-77
2022/10/14 06:51:51;;;;;;;0.63;0.35;;;15.50;99.90;;;14.81;100.00;100932.03;4216138;28;20024;-77
2022/10/14 06:53:52;;;;;;;0.40;0.20;;;15.50;99.90;;;14.85;100.00;100923.50;4216072;28;20403;-77
2022/10/14 06:56:04;;;;;;;1.00;0.20;;;15.50;99.90;;;14.85;100.00;100928.00;4216043;28;20021;-77
2022/10/14 06:58:05;;;;;;;1.25;0.40;;;15.50;99.90;;;14.87;100.00;100936.63;4198470;28;20028;-77
2022/10/14 07:00:07;;;;;;;1.00;0.40;;;15.60;99.90;;;14.87;100.00;100932.13;4214970;28;20028;-77
2022/10/14 07:02:09;;;;;;;1.92;0.30;;;15.60;99.90;;;14.95;100.00;100924.09;4215474;28;20422;-77
2022/10/14 07:04:10;;;;;;;1.92;0.40;;;15.60;99.90;;;14.98;100.00;100928.22;4215354;28;20029;-78
2022/10/14 07:06:11;;;;;;;0.98;0.30;;;15.70;99.90;;;15.01;100.00;100933.19;4215684;28;20115;-78
2022/10/14 07:08:13;;;;;;;1.90;0.40;;;15.70;99.90;;;15.04;100.00;100927.50;4215840;28;20048;-78
2022/10/14 07:10:13;;;;;;;2.85;0.52;;;15.80;99.90;;;15.18;100.00;100928.53;4214598;28;20028;-78
2022/10/14 07:12:14;;;;;;;1.17;0.47;;;15.80;99.90;;;15.19;100.00;100928.34;4215745;28;20052;-78
2022/10/14 07:14:15;;;;;;;4.70;1.00;;;15.90;99.90;;;15.31;100.00;100920.75;4214654;28;20036;-78
2022/10/14 07:16:16;;;;;;;5.25;1.33;;;16.00;99.90;;;15.49;100.00;100923.91;4205327;28;20024;-78
2022/10/14 07:18:18;;;;;;;6.07;1.90;;;16.10;99.90;;;15.54;100.00;100928.66;4215737;28;20032;-77
2022/10/14 07:20:19;;;;;;;9.20;1.70;;;16.20;99.90;;;15.63;100.00;100922.25;4214121;28;20035;-78
2022/10/14 07:22:19;;;;;;;14.48;2.40;;;16.30;99.90;;;15.76;100.00;100927.75;4184640;28;20021;-78
2022/10/14 07:24:20;;;;;;;7.70;2.10;;;16.40;99.90;;;15.81;100.00;100920.03;4187758;28;20021;-78
2022/10/14 07:26:21;;;;;;;10.82;2.60;;;16.50;99.90;;;15.98;100.00;100938.25;4208767;28;20442;-78
2022/10/14 07:28:22;;;;;;;11.18;2.60;;;16.60;99.90;;;16.03;100.00;100929.75;4215516;28;20036;-78
2022/10/14 07:30:23;;;;;;;14.55;3.00;;;16.60;99.90;;;16.16;100.00;100935.19;4230641;28;20052;-78
2022/10/14 07:32:24;;;;;;;11.50;2.45;;;16.80;99.90;;;16.28;100.00;100952.31;4215508;28;20027;-78
2022/10/14 07:34:26;;;;;;;8.18;2.47;;;16.80;99.90;;;16.26;100.00;100946.38;4215145;28;20036;-78
2022/10/14 07:36:27;;;;;;;15.90;3.78;;;16.90;99.90;;;16.34;100.00;100959.56;4214090;28;20517;-77
2022/10/14 07:38:28;;;;;;;18.73;3.30;;;16.90;99.90;;;16.35;100.00;100955.91;4202138;28;20480;-78
2022/10/14 07:40:29;;;;;;;21.45;4.38;;;17.00;99.90;;;16.33;100.00;100960.59;4214123;28;20032;-78
2022/10/14 07:42:30;;;;;;;23.92;5.07;;;17.00;99.90;;;16.35;100.00;100961.22;4199990;28;20037;-78
2022/10/14 07:44:31;;;;;;;21.27;4.40;;;17.00;99.90;;;16.33;100.00;100960.59;4202804;28;20123;-78
2022/10/14 07:46:34;;;;;;;28.95;5.97;;;17.00;99.90;;;16.38;100.00;100955.53;4202449;28;20032;-78
2022/10/14 07:48:37;;;;;;;34.05;6.93;;;17.00;99.90;;;16.42;100.00;100967.47;4202296;28;20098;-78
2022/10/14 07:50:37;;;;;;;27.40;5.10;;;17.10;99.90;;;16.50;100.00;100977.16;4200314;28;20463;-78
2022/10/14 07:52:39;;;;;;;25.98;5.30;;;17.10;99.90;;;16.50;100.00;100967.34;4185738;28;20017;-78
2022/10/14 07:54:39;;;;;;;29.30;5.35;;;17.10;99.90;;;16.51;100.00;100970.81;4202361;28;20024;-78
2022/10/14 07:56:42;;;;;;;21.55;4.80;;;17.20;99.90;;;16.53;100.00;100963.47;4203916;28;20031;-78
2022/10/14 07:58:43;;;;;;;16.95;4.78;;;17.20;99.90;;;16.56;100.00;100969.28;4185705;28;20448;-78
2022/10/14 08:00:45;;;;;;;20.52;4.50;;;17.20;99.90;;;16.58;100.00;100967.22;4203825;28;20025;-78
2022/10/14 08:02:45;;;;;;;22.10;4.15;;;17.20;99.90;;;16.55;100.00;100962.28;4202684;28;20036;-78
2022/10/14 08:04:51;;;;;;;23.63;4.22;;;17.30;99.90;;;16.57;100.00;100973.59;4193101;28;20026;-77
2022/10/14 08:06:52;;;;;;;17.05;4.53;;;17.20;99.90;;;16.58;100.00;100964.56;4203611;28;20063;-78
2022/10/14 08:08:53;;;;;;;20.85;4.45;;;17.20;99.90;;;16.68;100.00;100960.75;4203658;28;20037;-78
2022/10/14 08:11:08;;;;;;;19.00;3.42;;;17.30;99.90;;;16.71;100.00;100955.06;4185634;28;20080;-78
2022/10/14 08:13:09;;;;;;;13.80;3.58;;;17.30;99.90;;;16.69;100.00;100951.78;4194671;28;20076;-78
2022/10/14 08:15:10;;;;;;;15.02;3.33;;;17.40;99.90;;;16.79;100.00;100955.75;4202432;28;20037;-78
2022/10/14 08:17:11;;;;;;;11.35;3.13;;;17.40;99.90;;;16.79;100.00;100952.25;4203436;28;20118;-78
2022/10/14 08:19:12;;;;;;;13.18;3.67;;;17.40;99.90;;;16.76;100.00;100950.81;4203580;28;20499;-77
2022/10/14 08:21:14;;;;;;;12.93;2.58;;;17.40;99.90;;;16.75;100.00;100945.69;4202090;28;20024;-77
2022/10/14 08:23:15;;;;;;;16.67;3.30;;;17.40;99.90;;;16.75;100.00;100940.34;4202310;28;20498;-78
2022/10/14 08:25:16;;;;;;;10.43;2.53;;;17.40;99.90;;;16.78;100.00;100945.31;4203201;28;20029;-78
2022/10/14 08:27:18;;;;;;;12.23;2.30;;;17.40;99.90;;;16.76;100.00;100936.66;4203476;28;20503;-78
2022/10/14 08:29:21;;;;;;;10.50;2.08;;;17.40;99.90;;;16.83;100.00;100934.88;4202133;28;20025;-78
2022/10/14 08:31:22;;;;;;;13.63;2.78;;;17.40;99.90;;;16.81;100.00;100921.78;4197746;28;20048;-78